Time;durP1;ratioP1;P1;durP2;ratioP2;P2;SDS_P1;SDS_P2;PMS_P1;PMS_P2;Temp;Humidity;BMP_temperature;BMP_pressure;BME280_temperature;BME280_humidity;BME280_pressure;Samples;Min_cycle;Max_cycle;Signal;HPM_P1;HPM_P2
2023/02/01 00:00:41;;;;;;;;;;;5.70;53.60;;;;;;5018022;28;19920;-76
2023/02/01 00:03:23;;;;;;;;;;;5.80;51.20;;;;;;5008021;28;20369;-76
2023/02/01 00:05:57;;;;;;;;;;;5.80;43.40;;;;;;5003770;28;19957;-77
2023/02/01 00:08:28;;;;;;;;;;;5.90;39.40;;;;;;5004528;28;20195;-76
2023/02/01 00:13:57;;;;;;;;;;;5.90;39.40;;;;;;5003023;28;19920;-88
2023/02/01 00:19:26;;;;;;;;;;;6.00;39.50;;;;;;5001259;28;20396;-89
2023/02/01 00:22:05;;;;;;;;;;;6.00;39.40;;;;;;5014184;28;19910;-89
2023/02/01 00:30:59;;;;;;;;;;;6.00;39.60;;;;;;5011533;28;20028;-90
2023/02/01 00:39:40;;;;;;;;;;;6.00;23.70;;;;;;5005880;28;19972;-76
2023/02/01 00:42:06;;;;;;;;;;;6.00;25.60;;;;;;5008708;28;19960;-77
2023/02/01 00:44:47;;;;;;;;;;;6.00;25.20;;;;;;5000271;28;19921;-76
2023/02/01 00:47:12;;;;;;;;;;;6.00;26.60;;;;;;5012707;28;19910;-77
2023/02/01 00:49:46;;;;;;;;;;;6.00;26.30;;;;;;5003456;28;19964;-76
2023/02/01 00:52:22;;;;;;;;;;;6.10;23.30;;;;;;5032242;28;19910;-76
2023/02/01 00:54:53;;;;;;;;;;;6.10;23.10;;;;;;5005945;28;19909;-88
2023/02/01 01:00:21;;;;;;;;;;;6.00;23.70;;;;;;5000844;28;19933;-89
2023/02/01 01:06:09;;;;;;;;;;;5.90;27.60;;;;;;4998331;28;19926;-88
2023/02/01 01:14:40;;;;;;;;;;;6.00;26.60;;;;;;5005267;28;20281;-88
2023/02/01 01:20:10;;;;;;;;;;;6.00;26.10;;;;;;5002446;28;19919;-88
2023/02/01 01:25:39;;;;;;;;;;;6.00;23.40;;;;;;4997711;28;19917;-77
2023/02/01 01:28:05;;;;;;;;;;;6.00;22.70;;;;;;5006363;28;19913;-77
2023/02/01 01:30:35;;;;;;;;;;;6.00;22.90;;;;;;5016534;28;19909;-77
2023/02/01 01:33:29;;;;;;;;;;;6.00;23.50;;;;;;5003115;28;19913;-76
2023/02/01 01:35:59;;;;;;;;;;;6.10;24.00;;;;;;5003811;28;19917;-76
2023/02/01 01:38:41;;;;;;;;;;;6.10;22.00;;;;;;5000007;28;19918;-76
2023/02/01 01:41:27;;;;;;;;;;;6.10;21.60;;;;;;5004174;28;19920;-87
2023/02/01 01:47:11;;;;;;;;;;;6.20;20.20;;;;;;5006757;28;19940;-87
2023/02/01 01:55:43;;;;;;;;;;;6.10;25.20;;;;;;5001332;28;19921;-76
2023/02/01 01:58:22;;;;;;;;;;;6.10;27.80;;;;;;5014033;28;19928;-76
2023/02/01 02:00:53;;;;;;;;;;;6.10;29.50;;;;;;5015902;28;19983;-76
2023/02/01 02:03:27;;;;;;;;;;;6.20;31.80;;;;;;4993984;28;20004;-76
2023/02/01 02:05:55;;;;;;;;;;;6.30;30.10;;;;;;4997262;28;19910;-77
2023/02/01 02:08:21;;;;;;;;;;;6.20;27.00;;;;;;5008408;28;19914;-76
2023/02/01 02:11:02;;;;;;;;;;;6.20;29.40;;;;;;5010166;28;19910;-89
2023/02/01 02:16:55;;;;;;;;;;;6.10;38.80;;;;;;5010212;28;19916;-87
2023/02/01 02:25:30;;;;;;;;;;;6.10;39.40;;;;;;4996689;28;19965;-77
2023/02/01 02:31:18;;;;;;;;;;;6.10;39.60;;;;;;4995579;28;20511;-76
2023/02/01 02:33:51;;;;;;;;;;;6.00;39.40;;;;;;5003444;28;19945;-75
2023/02/01 02:36:40;;;;;;;;;;;6.00;39.50;;;;;;5022375;28;19910;-76
2023/02/01 02:39:23;;;;;;;;;;;6.10;39.60;;;;;;5010821;28;19968;-76
2023/02/01 03:05:50;;;;;;;;;;;6.20;39.60;;;;;;5013301;28;19952;-88
2023/02/01 03:08:18;;;;;;;;;;;6.10;39.70;;;;;;4995917;28;19959;-87
2023/02/01 03:11:11;;;;;;;;;;;6.10;39.60;;;;;;4999958;28;19916;-88
2023/02/01 03:13:40;;;;;;;;;;;6.10;39.80;;;;;;5000189;28;19914;-87
2023/02/01 03:19:28;;;;;;;;;;;6.10;39.80;;;;;;4996869;28;19968;-88
2023/02/01 03:28:11;;;;;;;;;;;6.20;39.60;;;;;;4996485;28;19960;-76
2023/02/01 03:30:53;;;;;;;;;;;6.20;39.80;;;;;;5011210;28;19918;-76
2023/02/01 03:33:24;;;;;;;;;;;6.20;39.90;;;;;;4990320;28;20376;-77
2023/02/01 03:36:22;;;;;;;;;;;6.10;39.60;;;;;;4977223;28;19910;-77
2023/02/01 03:39:04;;;;;;;;;;;6.10;39.60;;;;;;4994629;28;19924;-75
2023/02/01 03:41:59;;;;;;;;;;;6.10;39.60;;;;;;5013686;28;19920;-88
2023/02/01 03:47:29;;;;;;;;;;;6.20;39.70;;;;;;4999908;28;20388;-87
2023/02/01 03:56:01;;;;;;;;;;;6.10;39.50;;;;;;5001277;28;19979;-88
2023/02/01 04:01:41;;;;;;;;;;;6.00;39.50;;;;;;5014501;28;19959;-88
2023/02/01 04:04:06;;;;;;;;;;;6.10;39.50;;;;;;4992297;28;19920;-87
2023/02/01 04:06:41;;;;;;;;;;;6.10;39.60;;;;;;4977412;28;19910;-88
2023/02/01 04:15:12;;;;;;;;;;;6.20;39.60;;;;;;5002345;28;19955;-88
2023/02/01 04:26:53;;;;;;;;;;;6.30;39.60;;;;;;5000251;28;19937;-77
2023/02/01 04:29:29;;;;;;;;;;;6.30;39.60;;;;;;5001391;28;19917;-76
2023/02/01 04:31:59;;;;;;;;;;;6.30;39.70;;;;;;5001054;28;19951;-76
2023/02/01 04:34:29;;;;;;;;;;;6.30;39.70;;;;;;5000175;28;19910;-76
2023/02/01 04:36:59;;;;;;;;;;;6.30;39.70;;;;;;5024219;28;19910;-76
2023/02/01 04:39:24;;;;;;;;;;;6.30;39.70;;;;;;5004281;28;19913;-77
2023/02/01 04:41:59;;;;;;;;;;;6.30;39.70;;;;;;5017507;28;19913;-87
2023/02/01 04:47:41;;;;;;;;;;;6.30;39.70;;;;;;4998198;28;19960;-88
2023/02/01 04:50:10;;;;;;;;;;;6.20;39.60;;;;;;5022678;28;20383;-87
2023/02/01 04:55:38;;;;;;;;;;;6.20;39.70;;;;;;5012200;28;19921;-87
2023/02/01 04:58:04;;;;;;;;;;;6.20;39.60;;;;;;5009320;28;19921;-76
2023/02/01 05:00:30;;;;;;;;;;;6.20;39.70;;;;;;4997775;28;19909;-77
2023/02/01 05:02:59;;;;;;;;;;;6.30;39.70;;;;;;5005249;28;19921;-76
2023/02/01 05:05:25;;;;;;;;;;;6.20;39.70;;;;;;5011931;28;19920;-76
2023/02/01 05:13:47;;;;;;;;;;;6.20;39.70;;;;;;5016902;28;20431;-84
2023/02/01 05:14:29;;;;;;;;;;;6.20;39.60;;;;;;5012025;28;19917;-84
2023/02/01 05:23:17;;;;;;;;;;;6.20;39.60;;;;;;4997704;28;19960;-86
2023/02/01 05:25:47;;;;;;;;;;;6.10;39.50;;;;;;5026867;28;20347;-86
2023/02/01 05:28:12;;;;;;;;;;;6.00;39.50;;;;;;4986924;28;20365;-85
2023/02/01 05:30:47;;;;;;;;;;;6.10;39.50;;;;;;5007793;28;19910;-85
2023/02/01 05:33:17;;;;;;;;;;;6.10;39.80;;;;;;4983821;28;20005;-85
2023/02/01 05:35:47;;;;;;;;;;;6.10;32.70;;;;;;4988764;28;19917;-86
2023/02/01 05:38:31;;;;;;;;;;;6.20;29.80;;;;;;5015508;28;19913;-86
2023/02/01 05:41:27;;;;;;;;;;;6.20;25.30;;;;;;5011649;28;20368;-86
2023/02/01 05:47:12;;;;;;;;;;;6.10;22.00;;;;;;5006900;28;19920;-86
2023/02/01 05:50:05;;;;;;;;;;;6.30;19.10;;;;;;5017025;28;19914;-86
2023/02/01 05:59:05;;;;;;;;;;;6.20;13.20;;;;;;5023911;28;19940;-85
2023/02/01 06:01:35;;;;;;;;;;;6.20;11.10;;;;;;5019042;28;19918;-85
2023/02/01 06:06:54;;;;;;;;;;;6.00;11.20;;;;;;5001930;28;19917;-85
2023/02/01 06:09:20;;;;;;;;;;;5.90;14.10;;;;;;4995167;28;19917;-86
2023/02/01 06:12:00;;;;;;;;;;;5.90;14.60;;;;;;5028659;28;19920;-86
2023/02/01 06:14:59;;;;;;;;;;;5.80;16.40;;;;;;4990438;28;20388;-83
2023/02/01 06:17:29;;;;;;;;;;;5.80;16.90;;;;;;4996417;28;19914;-82
2023/02/01 06:20:17;;;;;;;;;;;5.80;16.20;;;;;;5025241;28;19918;-83
2023/02/01 06:22:47;;;;;;;;;;;5.80;17.40;;;;;;5012553;28;20357;-82
2023/02/01 06:25:23;;;;;;;;;;;5.80;18.80;;;;;;5010135;28;19913;-78
2023/02/01 06:28:01;;;;;;;;;;;5.70;17.70;;;;;;4995875;28;19960;-78
2023/02/01 06:30:53;;;;;;;;;;;5.70;19.00;;;;;;5010611;28;20357;-78
2023/02/01 06:33:23;;;;;;;;;;;5.70;18.50;;;;;;4997233;28;19917;-78
2023/02/01 06:35:56;;;;;;;;;;;5.60;20.00;;;;;;5017596;28;20012;-78
2023/02/01 06:38:29;;;;;;;;;;;5.60;19.00;;;;;;4983849;28;19918;-78
2023/02/01 06:40:55;;;;;;;;;;;5.50;16.40;;;;;;5017137;28;19917;-78
2023/02/01 06:43:24;;;;;;;;;;;5.40;18.40;;;;;;5006327;28;20380;-78
2023/02/01 06:46:03;;;;;;;;;;;5.30;18.90;;;;;;5002612;28;19920;-75
2023/02/01 06:48:35;;;;;;;;;;;5.30;16.70;;;;;;4995269;28;19981;-75
2023/02/01 06:51:00;;;;;;;;;;;5.20;15.10;;;;;;5001658;28;19920;-74
2023/02/01 06:53:47;;;;;;;;;;;5.20;17.30;;;;;;5004089;28;19918;-75
2023/02/01 06:56:17;;;;;;;;;;;5.10;16.10;;;;;;5014915;28;19914;-75
2023/02/01 06:58:43;;;;;;;;;;;5.00;17.10;;;;;;5005635;28;20324;-75
2023/02/01 07:04:23;;;;;;;;;;;4.90;20.00;;;;;;4998767;28;19964;-77
2023/02/01 07:06:53;;;;;;;;;;;4.80;19.70;;;;;;4997033;28;19914;-78
2023/02/01 07:09:29;;;;;;;;;;;4.80;21.20;;;;;;4996667;28;19917;-78
2023/02/01 07:11:59;;;;;;;;;;;4.70;23.30;;;;;;5002572;28;19909;-79
2023/02/01 07:14:47;;;;;;;;;;;4.60;23.40;;;;;;4994399;28;19909;-80
2023/02/01 07:17:41;;;;;;;;;;;4.60;26.10;;;;;;4996595;28;19910;-79
2023/02/01 07:20:41;;;;;;;;;;;4.60;26.90;;;;;;5012712;28;19953;-79
2023/02/01 07:26:10;;;;;;;;;;;4.60;26.20;;;;;;4994645;28;19932;-78
2023/02/01 07:28:41;;;;;;;;;;;4.50;29.30;;;;;;4977311;28;19941;-78
2023/02/01 07:31:41;;;;;;;;;;;4.60;38.30;;;;;;5011155;28;19996;-74
2023/02/01 07:34:11;;;;;;;;;;;4.50;38.00;;;;;;5009414;28;19914;-71
2023/02/01 07:36:41;;;;;;;;;;;4.50;38.20;;;;;;4994292;28;20004;-71
2023/02/01 07:39:07;;;;;;;;;;;4.50;38.40;;;;;;4999187;28;19918;-72
2023/02/01 07:41:33;;;;;;;;;;;4.60;26.30;;;;;;5008738;28;20274;-71
2023/02/01 07:43:58;;;;;;;;;;;4.60;16.60;;;;;;4995778;28;19928;-70
2023/02/01 07:46:24;;;;;;;;;;;4.70;8.90;;;;;;5014123;28;20343;-71
2023/02/01 07:48:49;;;;;;;;;;;4.80;1.00;;;;;;5003620;28;20345;-71
2023/02/01 07:51:17;;;;;;;;;;;5.00;1.00;;;;;;4984998;28;19984;-71
2023/02/01 07:53:59;;;;;;;;;;;5.10;1.00;;;;;;5013008;28;20273;-71
2023/02/01 07:56:29;;;;;;;;;;;5.30;1.00;;;;;;5018804;28;19913;-71
2023/02/01 07:58:55;;;;;;;;;;;5.50;1.00;;;;;;5013252;28;19971;-71
2023/02/01 08:01:24;;;;;;;;;;;5.60;1.00;;;;;;5009915;28;19909;-71
2023/02/01 08:03:58;;;;;;;;;;;5.80;1.00;;;;;;5008513;28;20000;-71
2023/02/01 08:06:25;;;;;;;;;;;5.80;1.00;;;;;;5007561;28;19909;-71
2023/02/01 08:08:51;;;;;;;;;;;5.90;1.00;;;;;;5006143;28;20330;-71
2023/02/01 08:11:18;;;;;;;;;;;6.00;1.00;;;;;;4993871;28;19960;-71
2023/02/01 08:13:43;;;;;;;;;;;6.10;1.00;;;;;;5012925;28;19914;-71
2023/02/01 08:16:17;;;;;;;;;;;6.20;1.00;;;;;;5011308;28;19920;-78
2023/02/01 08:18:44;;;;;;;;;;;6.30;1.00;;;;;;5005302;28;19936;-77
2023/02/01 08:21:19;;;;;;;;;;;6.30;1.00;;;;;;5003818;28;19914;-77
2023/02/01 08:23:53;;;;;;;;;;;6.30;1.00;;;;;;4998014;28;19925;-77
2023/02/01 08:26:25;;;;;;;;;;;6.30;1.00;;;;;;5011355;28;19917;-77
2023/02/01 08:31:54;;;;;;;;;;;6.50;1.00;;;;;;5007083;28;19956;-71
2023/02/01 08:34:20;;;;;;;;;;;6.60;1.00;;;;;;5020449;28;20000;-71
2023/02/01 08:36:46;;;;;;;;;;;6.50;1.00;;;;;;5005180;28;20237;-71
2023/02/01 08:39:11;;;;;;;;;;;6.50;1.00;;;;;;5012668;28;19914;-71
2023/02/01 08:41:37;;;;;;;;;;;6.60;1.00;;;;;;5005917;28;19920;-71
2023/02/01 08:44:02;;;;;;;;;;;6.70;1.00;;;;;;5011973;28;19921;-71
2023/02/01 08:46:29;;;;;;;;;;;6.70;1.00;;;;;;5009466;28;19960;-77
2023/02/01 08:49:05;;;;;;;;;;;6.90;1.00;;;;;;5005836;28;20005;-77
2023/02/01 08:51:47;;;;;;;;;;;6.80;1.00;;;;;;5017053;28;19921;-77
2023/02/01 08:54:29;;;;;;;;;;;6.80;1.00;;;;;;4999118;28;19910;-77
2023/02/01 08:56:56;;;;;;;;;;;6.70;1.00;;;;;;5010466;28;19913;-78
2023/02/01 08:59:35;;;;;;;;;;;6.70;1.00;;;;;;5003015;28;20045;-78
2023/02/01 09:02:15;;;;;;;;;;;6.80;1.00;;;;;;5007103;28;20387;-78
2023/02/01 09:04:41;;;;;;;;;;;6.90;1.00;;;;;;5008709;28;19933;-78
2023/02/01 09:07:07;;;;;;;;;;;7.00;1.00;;;;;;5003893;28;19921;-78
2023/02/01 09:09:35;;;;;;;;;;;7.10;1.00;;;;;;4989813;28;19909;-78
2023/02/01 09:12:05;;;;;;;;;;;7.20;1.00;;;;;;5010493;28;20317;-78
2023/02/01 09:14:30;;;;;;;;;;;7.20;1.00;;;;;;5018818;28;19914;-78
2023/02/01 09:16:56;;;;;;;;;;;7.00;1.00;;;;;;5010529;28;19920;-77
2023/02/01 09:19:35;;;;;;;;;;;7.10;1.00;;;;;;4996862;28;19914;-81
2023/02/01 09:22:11;;;;;;;;;;;7.10;1.00;;;;;;4980300;28;19910;-89
2023/02/01 09:24:37;;;;;;;;;;;7.10;1.00;;;;;;5028897;28;19921;-89
2023/02/01 09:33:11;;;;;;;;;;;7.20;1.00;;;;;;4999731;28;19964;-75
2023/02/01 09:35:37;;;;;;;;;;;7.20;1.00;;;;;;5009325;28;19968;-75
2023/02/01 09:38:05;;;;;;;;;;;7.10;1.00;;;;;;5002723;28;20435;-76
2023/02/01 09:40:35;;;;;;;;;;;7.10;1.00;;;;;;5003416;28;19960;-76
2023/02/01 09:43:07;;;;;;;;;;;7.10;1.00;;;;;;4988802;28;19972;-76
2023/02/01 09:45:41;;;;;;;;;;;7.10;1.00;;;;;;5000313;28;19918;-75
2023/02/01 09:48:43;;;;;;;;;;;7.20;1.00;;;;;;4997511;28;20326;-90
2023/02/01 09:57:15;;;;;;;;;;;7.40;1.00;;;;;;4942671;29;19916;-88
2023/02/01 09:59:46;;;;;;;;;;;7.30;1.00;;;;;;4933332;29;19915;-88
2023/02/01 10:05:47;;;;;;;;;;;7.40;1.00;;;;;;4955810;29;19917;-84
2023/02/01 10:12:08;;;;;;;;;;;7.40;1.00;;;;;;4936868;29;20005;-87
2023/02/01 10:14:47;;;;;;;;;;;7.40;1.00;;;;;;4948113;29;19930;-88
2023/02/01 10:26:22;;;;;;;;;;;7.50;1.00;;;;;;5002988;28;19960;-88
2023/02/01 10:32:11;;;;;;;;;;;7.60;1.00;;;;;;5004547;28;19959;-88
2023/02/01 10:35:05;;;;;;;;;;;7.60;1.00;;;;;;5016083;28;19940;-89
2023/02/01 10:37:47;;;;;;;;;;;7.70;1.00;;;;;;4998593;28;19909;-90
2023/02/01 10:40:13;;;;;;;;;;;7.60;1.00;;;;;;4998324;28;19944;-88
2023/02/01 10:45:47;;;;;;;;;;;7.70;1.00;;;;;;5015392;28;19941;-90
2023/02/01 10:48:17;;;;;;;;;;;7.70;1.00;;;;;;4986457;28;19960;-75
2023/02/01 10:50:55;;;;;;;;;;;7.80;1.00;;;;;;4995145;28;19910;-75
2023/02/01 10:53:41;;;;;;;;;;;7.80;1.00;;;;;;4995436;28;19916;-76
2023/02/01 10:56:11;;;;;;;;;;;7.70;1.00;;;;;;5008625;28;19913;-74
2023/02/01 10:58:45;;;;;;;;;;;7.70;1.00;;;;;;5014334;28;19940;-75
2023/02/01 11:01:19;;;;;;;;;;;7.80;1.00;;;;;;4996425;28;20377;-75
2023/02/01 11:10:23;;;;;;;;;;;7.70;1.00;;;;;;4999768;28;19976;-89
2023/02/01 11:19:17;;;;;;;;;;;7.70;1.00;;;;;;5001614;28;20280;-88
2023/02/01 11:22:17;;;;;;;;;;;7.70;1.00;;;;;;5020892;28;19932;-88
2023/02/01 11:24:45;;;;;;;;;;;7.70;1.00;;;;;;5030679;28;19910;-88
2023/02/01 11:30:40;;;;;;;;;;;7.60;1.00;;;;;;5014735;28;19944;-88
2023/02/01 11:33:33;;;;;;;;;;;7.60;1.00;;;;;;4985992;28;20035;-75
2023/02/01 11:36:26;;;;;;;;;;;7.50;1.00;;;;;;5006405;28;20464;-76
2023/02/01 11:39:08;;;;;;;;;;;7.60;1.00;;;;;;5009397;28;20324;-74
2023/02/01 11:41:35;;;;;;;;;;;7.60;1.00;;;;;;5022233;28;20284;-76
2023/02/01 11:44:23;;;;;;;;;;;7.60;1.00;;;;;;5006006;28;19917;-75
2023/02/01 11:47:19;;;;;;;;;;;7.60;1.00;;;;;;5016126;28;19922;-75
2023/02/01 11:49:48;;;;;;;;;;;7.60;1.00;;;;;;4956216;28;19933;-88
2023/02/01 11:52:23;;;;;;;;;;;7.60;1.00;;;;;;4955242;29;19911;-88
2023/02/01 12:04:05;;;;;;;;;;;7.60;1.00;;;;;;4973257;28;20063;-75
2023/02/01 12:06:46;;;;;;;;;;;7.70;1.00;;;;;;4959675;28;20306;-75
2023/02/01 12:09:29;;;;;;;;;;;7.80;1.00;;;;;;4953101;28;19915;-74
2023/02/01 12:12:05;;;;;;;;;;;7.80;1.00;;;;;;4964016;28;19921;-75
2023/02/01 12:14:41;;;;;;;;;;;7.70;1.00;;;;;;4972177;28;19961;-75
2023/02/01 12:17:12;;;;;;;;;;;7.90;1.00;;;;;;4959709;28;20361;-76
2023/02/01 12:19:47;;;;;;;;;;;8.00;1.00;;;;;;4966034;28;20404;-75
2023/02/01 12:22:17;;;;;;;;;;;7.90;1.00;;;;;;4955620;28;20325;-75
2023/02/01 12:24:50;;;;;;;;;;;7.90;1.00;;;;;;4973186;28;20309;-75
2023/02/01 12:27:34;;;;;;;;;;;7.90;1.00;;;;;;5008437;28;19913;-75
2023/02/01 12:30:10;;;;;;;;;;;7.80;1.00;;;;;;5012603;28;20008;-75
2023/02/01 12:32:47;;;;;;;;;;;7.80;1.00;;;;;;5001473;28;20234;-80
2023/02/01 12:38:37;;;;;;;;;;;7.90;1.00;;;;;;5000638;28;19959;-88
2023/02/01 12:41:37;;;;;;;;;;;7.80;1.00;;;;;;4994529;28;19920;-88
2023/02/01 12:47:37;;;;;;;;;;;8.00;1.00;;;;;;4960579;28;19961;-88
2023/02/01 12:50:12;;;;;;;;;;;7.90;1.00;;;;;;4877586;29;20338;-75
2023/02/01 12:52:47;;;;;;;;;;;7.90;1.00;;;;;;4878200;29;19955;-74
2023/02/01 12:55:19;;;;;;;;;;;7.90;1.00;;;;;;4877274;29;20406;-75
2023/02/01 12:57:50;;;;;;;;;;;7.80;1.00;;;;;;4877742;29;19912;-74
2023/02/01 13:00:47;;;;;;;;;;;7.80;1.00;;;;;;4869856;29;19951;-75
2023/02/01 13:03:47;;;;;;;;;;;7.80;1.00;;;;;;4880562;29;19924;-74
2023/02/01 13:06:19;;;;;;;;;;;7.80;1.00;;;;;;4880769;29;19924;-74
2023/02/01 13:09:00;;;;;;;;;;;7.90;1.00;;;;;;4865409;29;20010;-75
2023/02/01 13:11:37;;;;;;;;;;;7.90;1.00;;;;;;4880695;29;20471;-75
2023/02/01 13:14:37;;;;;;;;;;;8.00;1.00;;;;;;4880410;29;19911;-76
2023/02/01 13:17:11;;;;;;;;;;;8.00;1.00;;;;;;4873014;29;20350;-75
2023/02/01 13:19:50;;;;;;;;;;;7.90;1.00;;;;;;4859459;29;19996;-75
2023/02/01 13:22:25;;;;;;;;;;;7.90;1.00;;;;;;4847161;29;19919;-74
2023/02/01 13:24:54;;;;;;;;;;;7.90;1.00;;;;;;4861660;29;19912;-75
2023/02/01 13:27:19;;;;;;;;;;;8.00;1.00;;;;;;4941349;29;19971;-75
2023/02/01 13:29:51;;;;;;;;;;;8.00;1.00;;;;;;4937082;29;19915;-75
2023/02/01 13:32:25;;;;;;;;;;;8.10;1.00;;;;;;4924537;29;19915;-75
2023/02/01 13:34:58;;;;;;;;;;;8.00;1.00;;;;;;4953598;29;19918;-75
2023/02/01 13:37:42;;;;;;;;;;;8.20;1.00;;;;;;4936957;29;20434;-75
2023/02/01 13:40:35;;;;;;;;;;;8.10;1.00;;;;;;4952778;29;19915;-74
2023/02/01 13:43:21;;;;;;;;;;;8.20;1.00;;;;;;4936666;29;20021;-74
2023/02/01 13:45:52;;;;;;;;;;;8.30;1.00;;;;;;4936525;29;19961;-75
2023/02/01 13:48:35;;;;;;;;;;;8.20;1.00;;;;;;4935678;29;19926;-75
2023/02/01 13:51:05;;;;;;;;;;;8.40;1.00;;;;;;4937722;29;20314;-87
2023/02/01 13:53:48;;;;;;;;;;;8.30;1.00;;;;;;4991568;28;19910;-87
2023/02/01 13:56:16;;;;;;;;;;;8.30;1.00;;;;;;5011154;28;19960;-87
2023/02/01 13:58:48;;;;;;;;;;;8.30;1.00;;;;;;5005205;28;19913;-88
2023/02/01 14:04:47;;;;;;;;;;;8.50;1.00;;;;;;5016657;28;19972;-90
2023/02/01 14:07:20;;;;;;;;;;;8.40;1.00;;;;;;5007524;28;19921;-90
2023/02/01 14:09:46;;;;;;;;;;;8.30;1.00;;;;;;5003190;28;20369;-90
2023/02/01 14:12:37;;;;;;;;;;;8.30;1.00;;;;;;5005050;28;19997;-87
2023/02/01 14:15:22;;;;;;;;;;;8.30;1.00;;;;;;4945233;29;20010;-88
2023/02/01 14:18:25;;;;;;;;;;;8.40;1.00;;;;;;4956355;29;19921;-88
2023/02/01 14:21:13;;;;;;;;;;;8.50;1.00;;;;;;4952448;29;19985;-88
2023/02/01 14:23:54;;;;;;;;;;;8.70;1.00;;;;;;4929635;29;20001;-88
2023/02/01 14:26:47;;;;;;;;;;;8.60;1.00;;;;;;4927711;29;19922;-88
2023/02/01 14:29:41;;;;;;;;;;;8.60;1.00;;;;;;4955640;28;19915;-88
2023/02/01 14:32:19;;;;;;;;;;;8.70;1.00;;;;;;4955155;28;20009;-89
2023/02/01 14:34:54;;;;;;;;;;;8.70;1.00;;;;;;4940348;29;19910;-88
2023/02/01 14:37:24;;;;;;;;;;;8.80;1.00;;;;;;4955823;29;19910;-87
2023/02/01 14:39:53;;;;;;;;;;;8.90;1.00;;;;;;4954455;28;19973;-88
2023/02/01 14:42:43;;;;;;;;;;;8.80;1.00;;;;;;4958805;28;20436;-90
2023/02/01 14:48:35;;;;;;;;;;;8.90;1.00;;;;;;4955135;29;20306;-88
2023/02/01 14:51:17;;;;;;;;;;;8.90;1.00;;;;;;4961909;28;19917;-87
2023/02/01 14:56:49;;;;;;;;;;;9.00;1.00;;;;;;5008278;28;19984;-89
2023/02/01 14:59:47;;;;;;;;;;;8.80;1.00;;;;;;5002834;28;20016;-89
2023/02/01 15:02:49;;;;;;;;;;;8.90;1.00;;;;;;4996613;28;20004;-89
2023/02/01 15:05:35;;;;;;;;;;;8.90;1.00;;;;;;5011123;28;20004;-75
2023/02/01 15:08:20;;;;;;;;;;;8.90;1.00;;;;;;5008483;28;19961;-75
2023/02/01 15:10:50;;;;;;;;;;;8.90;1.00;;;;;;4995307;28;19920;-75
2023/02/01 15:13:19;;;;;;;;;;;8.90;1.00;;;;;;5010001;28;19913;-75
2023/02/01 15:16:07;;;;;;;;;;;9.00;1.00;;;;;;5001063;28;19918;-74
2023/02/01 15:18:35;;;;;;;;;;;9.00;1.00;;;;;;4945086;28;20325;-74
2023/02/01 15:21:05;;;;;;;;;;;9.00;1.00;;;;;;4937884;28;20005;-78
2023/02/01 15:23:35;;;;;;;;;;;8.90;1.00;;;;;;4943771;28;19942;-78
2023/02/01 15:26:23;;;;;;;;;;;8.90;1.00;;;;;;4957491;28;19993;-77
2023/02/01 15:29:17;;;;;;;;;;;8.80;1.00;;;;;;4942507;29;19953;-86
2023/02/01 15:31:47;;;;;;;;;;;8.80;1.00;;;;;;4970034;28;19910;-76
2023/02/01 15:34:13;;;;;;;;;;;8.70;1.00;;;;;;4953393;29;20259;-77
2023/02/01 15:36:47;;;;;;;;;;;8.60;1.00;;;;;;4942099;29;19925;-76
2023/02/01 15:39:30;;;;;;;;;;;8.60;1.00;;;;;;4924529;29;19915;-76
2023/02/01 15:42:01;;;;;;;;;;;8.50;1.00;;;;;;4953826;29;19915;-76
2023/02/01 15:44:43;;;;;;;;;;;8.40;1.00;;;;;;4958963;28;19918;-77
2023/02/01 15:47:19;;;;;;;;;;;8.40;1.00;;;;;;4959004;28;20373;-76
2023/02/01 15:50:17;;;;;;;;;;;8.30;1.00;;;;;;4957080;28;20086;-77
2023/02/01 15:52:46;;;;;;;;;;;8.30;1.00;;;;;;4953610;29;20467;-77
2023/02/01 15:55:23;;;;;;;;;;;8.30;1.00;;;;;;4963663;28;19909;-75
2023/02/01 15:58:07;;;;;;;;;;;8.20;1.00;;;;;;5009873;28;19913;-76
2023/02/01 16:01:06;;;;;;;;;;;8.20;1.00;;;;;;4997773;28;19917;-76
2023/02/01 16:03:48;;;;;;;;;;;8.20;1.00;;;;;;5007963;28;19920;-76
2023/02/01 16:06:38;;;;;;;;;;;8.20;1.00;;;;;;4999623;28;19916;-77
2023/02/01 16:09:19;;;;;;;;;;;8.10;1.00;;;;;;5006881;28;20384;-76
2023/02/01 16:12:17;;;;;;;;;;;8.10;1.00;;;;;;5003241;28;20388;-77
2023/02/01 16:14:42;;;;;;;;;;;8.10;1.00;;;;;;5004187;28;19913;-77
2023/02/01 16:17:11;;;;;;;;;;;8.10;1.00;;;;;;5007292;28;20012;-77
2023/02/01 16:19:59;;;;;;;;;;;8.10;1.00;;;;;;5006247;28;19922;-78
2023/02/01 16:22:29;;;;;;;;;;;8.20;1.00;;;;;;5003488;28;19913;-78
2023/02/01 16:24:55;;;;;;;;;;;8.20;1.00;;;;;;5000052;28;19914;-76
2023/02/01 16:27:23;;;;;;;;;;;8.20;1.00;;;;;;5000327;28;19937;-77
2023/02/01 16:29:49;;;;;;;;;;;8.20;1.00;;;;;;5008690;28;19910;-76
2023/02/01 16:32:19;;;;;;;;;;;8.20;1.00;;;;;;4994705;28;19956;-76
2023/02/01 16:34:47;;;;;;;;;;;8.10;1.00;;;;;;4994798;28;19913;-78
2023/02/01 16:37:21;;;;;;;;;;;8.10;1.00;;;;;;5015791;28;20353;-78
2023/02/01 16:39:59;;;;;;;;;;;8.10;1.00;;;;;;4997358;28;19965;-80
2023/02/01 16:42:30;;;;;;;;;;;8.10;1.00;;;;;;5006342;28;20011;-78
2023/02/01 16:45:05;;;;;;;;;;;8.10;1.00;;;;;;5001312;28;20043;-79
2023/02/01 16:47:37;;;;;;;;;;;8.00;1.00;;;;;;4987242;28;19917;-78
2023/02/01 16:50:18;;;;;;;;;;;8.10;1.00;;;;;;4999484;28;19913;-79
2023/02/01 16:52:47;;;;;;;;;;;8.00;1.00;;;;;;5017229;28;20290;-81
2023/02/01 16:58:35;;;;;;;;;;;7.90;1.00;;;;;;5016829;28;19960;-81
2023/02/01 17:01:12;;;;;;;;;;;7.90;1.00;;;;;;5019573;28;19910;-80
2023/02/01 17:03:43;;;;;;;;;;;7.90;1.00;;;;;;5030641;28;19923;-81
2023/02/01 17:06:25;;;;;;;;;;;7.90;1.00;;;;;;5002243;28;19964;-79
2023/02/01 17:09:17;;;;;;;;;;;7.90;1.00;;;;;;5016942;28;19909;-79
2023/02/01 17:11:47;;;;;;;;;;;7.90;1.00;;;;;;5006180;28;19910;-79
2023/02/01 17:14:18;;;;;;;;;;;7.80;1.00;;;;;;5028837;28;19913;-79
2023/02/01 17:16:45;;;;;;;;;;;7.70;1.00;;;;;;5007498;28;19955;-78
2023/02/01 17:19:18;;;;;;;;;;;7.70;1.00;;;;;;5012148;28;19988;-79
2023/02/01 17:21:55;;;;;;;;;;;7.70;1.00;;;;;;5007127;28;19910;-78
2023/02/01 17:24:28;;;;;;;;;;;7.70;1.00;;;;;;5003273;28;19960;-79
2023/02/01 17:27:11;;;;;;;;;;;7.60;1.00;;;;;;5018098;28;19964;-79
2023/02/01 17:29:55;;;;;;;;;;;7.70;1.00;;;;;;4989126;28;20305;-78
2023/02/01 17:32:41;;;;;;;;;;;7.70;1.00;;;;;;5015675;28;19909;-78
2023/02/01 17:35:27;;;;;;;;;;;7.70;1.00;;;;;;5008213;28;19909;-79
2023/02/01 17:38:10;;;;;;;;;;;7.70;1.00;;;;;;4999200;28;19972;-81
2023/02/01 17:40:47;;;;;;;;;;;7.70;1.00;;;;;;4996956;28;19921;-82
2023/02/01 17:43:14;;;;;;;;;;;7.60;1.00;;;;;;4979695;28;19917;-81
2023/02/01 17:48:53;;;;;;;;;;;7.50;1.00;;;;;;5010075;28;20467;-81
2023/02/01 17:51:26;;;;;;;;;;;7.60;1.00;;;;;;4988670;28;19920;-78
2023/02/01 17:53:53;;;;;;;;;;;7.60;1.00;;;;;;4994713;28;20000;-78
2023/02/01 17:56:30;;;;;;;;;;;7.60;1.00;;;;;;5030966;28;19910;-78
2023/02/01 17:59:23;;;;;;;;;;;7.60;1.00;;;;;;5002138;28;19913;-78
2023/02/01 18:01:59;;;;;;;;;;;7.60;1.00;;;;;;5013923;28;19913;-78
2023/02/01 18:04:25;;;;;;;;;;;7.60;1.00;;;;;;5014798;28;19964;-78
2023/02/01 18:06:51;;;;;;;;;;;7.70;1.00;;;;;;5012471;28;19914;-78
2023/02/01 18:09:29;;;;;;;;;;;7.70;1.00;;;;;;4997777;28;20300;-78
2023/02/01 18:12:06;;;;;;;;;;;7.70;1.00;;;;;;5015291;28;19909;-78
2023/02/01 18:14:47;;;;;;;;;;;7.70;1.00;;;;;;5002727;28;20001;-79
2023/02/01 18:17:23;;;;;;;;;;;7.70;1.00;;;;;;4985025;28;20333;-78
2023/02/01 18:19:53;;;;;;;;;;;7.70;1.00;;;;;;5012245;28;20495;-78
2023/02/01 18:22:23;;;;;;;;;;;7.70;1.00;;;;;;5005337;28;19910;-78
2023/02/01 18:24:53;;;;;;;;;;;7.70;1.00;;;;;;5008980;28;19910;-79
2023/02/01 18:27:25;;;;;;;;;;;7.60;1.00;;;;;;5007021;28;19910;-78
2023/02/01 18:30:06;;;;;;;;;;;7.60;1.00;;;;;;5008086;28;20379;-78
2023/02/01 18:32:42;;;;;;;;;;;7.70;1.00;;;;;;5001435;28;20447;-77
2023/02/01 18:35:41;;;;;;;;;;;7.70;1.00;;;;;;5019654;28;19914;-78
2023/02/01 18:38:35;;;;;;;;;;;7.70;1.00;;;;;;5002811;28;19959;-81
2023/02/01 18:41:08;;;;;;;;;;;7.60;1.00;;;;;;5013969;28;20024;-81
2023/02/01 18:43:35;;;;;;;;;;;7.60;1.00;;;;;;5015789;28;20001;-81
2023/02/01 18:46:18;;;;;;;;;;;7.50;1.00;;;;;;5002147;28;19917;-81
2023/02/01 18:55:06;;;;;;;;;;;7.40;1.00;;;;;;5005906;28;20061;-78
2023/02/01 18:57:32;;;;;;;;;;;7.40;1.00;;;;;;5002569;28;20319;-78
2023/02/01 18:59:59;;;;;;;;;;;7.30;1.00;;;;;;5011625;28;19917;-78
2023/02/01 19:02:25;;;;;;;;;;;7.40;1.00;;;;;;5007592;28;19913;-78
2023/02/01 19:04:53;;;;;;;;;;;7.40;1.00;;;;;;5015984;28;19913;-78
2023/02/01 19:07:41;;;;;;;;;;;7.40;1.00;;;;;;5002733;28;19968;-76
2023/02/01 19:10:15;;;;;;;;;;;7.40;1.00;;;;;;4993307;28;19914;-75
2023/02/01 19:12:48;;;;;;;;;;;7.40;1.00;;;;;;4977958;28;19910;-76
2023/02/01 19:21:20;;;;;;;;;;;7.50;1.00;;;;;;5013171;28;19964;-75
2023/02/01 19:26:50;;;;;;;;;;;7.50;1.00;;;;;;4995988;28;19960;-87
2023/02/01 19:32:47;;;;;;;;;;;7.50;1.00;;;;;;5008685;28;19960;-88
2023/02/01 19:38:17;;;;;;;;;;;7.30;1.00;;;;;;5002374;28;19968;-77
2023/02/01 19:40:48;;;;;;;;;;;7.30;1.00;;;;;;4994631;28;19914;-76
2023/02/01 19:43:23;;;;;;;;;;;7.40;1.00;;;;;;4977243;28;19921;-76
2023/02/01 19:46:01;;;;;;;;;;;7.50;1.00;;;;;;5009063;28;20400;-76
2023/02/01 19:48:27;;;;;;;;;;;7.50;1.00;;;;;;5002513;28;19993;-76